createdAt,value
2017-08-05T00:00:02.726Z,20.10
2017-08-05T00:02:31.005Z,20.10
2017-08-05T00:04:59.298Z,20.00
2017-08-05T00:07:27.675Z,20.00
2017-08-05T00:09:55.927Z,20.00
2017-08-05T00:12:24.226Z,20.00
2017-08-05T00:14:52.611Z,20.00
2017-08-05T00:17:20.994Z,19.90
2017-08-05T00:19:49.258Z,19.90
2017-08-05T00:22:17.539Z,19.90
2017-08-05T00:24:45.807Z,20.00
2017-08-05T00:27:14.108Z,20.00
2017-08-05T00:29:42.389Z,20.10
2017-08-05T00:32:10.657Z,20.10
2017-08-05T00:34:38.941Z,20.00
2017-08-05T00:37:07.294Z,20.00
2017-08-05T00:39:35.596Z,20.00
2017-08-05T00:42:03.854Z,20.00
2017-08-05T00:44:32.125Z,20.00
2017-08-05T00:47:00.491Z,20.00
2017-08-05T00:49:28.800Z,20.10
2017-08-05T00:51:57.093Z,20.10
2017-08-05T00:54:25.363Z,20.10
2017-08-05T00:56:53.694Z,20.10
2017-08-05T00:59:21.957Z,20.00
2017-08-05T01:01:50.358Z,20.00
2017-08-05T01:04:18.616Z,20.00
2017-08-05T01:06:46.880Z,19.90
2017-08-05T01:09:15.182Z,20.00
2017-08-05T01:11:43.468Z,19.90
2017-08-05T01:14:11.760Z,19.80
2017-08-05T01:16:40.826Z,19.70
2017-08-05T01:19:09.206Z,19.70
2017-08-05T01:21:37.502Z,19.60
2017-08-05T01:24:05.868Z,19.60
2017-08-05T01:26:34.120Z,19.60
2017-08-05T01:29:02.410Z,19.50
2017-08-05T01:31:30.697Z,19.50
2017-08-05T01:33:58.976Z,19.40
2017-08-05T01:36:27.257Z,19.30
2017-08-05T01:38:55.530Z,19.30
2017-08-05T01:41:23.909Z,19.30
2017-08-05T01:43:52.172Z,19.30
2017-08-05T01:46:20.466Z,19.20
2017-08-05T01:48:48.715Z,19.20
2017-08-05T01:51:16.999Z,19.20
2017-08-05T01:53:45.273Z,19.20
2017-08-05T01:56:13.545Z,19.20
2017-08-05T01:58:41.959Z,19.20
2017-08-05T02:01:10.233Z,19.20
2017-08-05T02:03:38.604Z,19.10
2017-08-05T02:06:06.879Z,19.10
2017-08-05T02:08:35.285Z,19.10
2017-08-05T02:11:03.655Z,19.00
2017-08-05T02:13:32.028Z,19.00
2017-08-05T02:16:00.304Z,19.00
2017-08-05T02:18:28.592Z,19.00
2017-08-05T02:20:56.968Z,18.90
2017-08-05T02:23:25.254Z,18.80
2017-08-05T02:25:53.630Z,18.80
2017-08-05T02:28:21.892Z,18.80
2017-08-05T02:30:50.307Z,18.80
2017-08-05T02:33:19.336Z,18.80
2017-08-05T02:35:47.677Z,18.80
2017-08-05T02:38:16.760Z,18.70
2017-08-05T02:40:45.025Z,18.70
2017-08-05T02:43:13.314Z,18.60
2017-08-05T02:45:41.682Z,18.60
2017-08-05T02:48:10.050Z,18.60
2017-08-05T02:50:38.332Z,18.60
2017-08-05T02:53:06.724Z,18.50
2017-08-05T02:55:34.995Z,18.50
2017-08-05T02:58:03.278Z,18.50
2017-08-05T03:00:31.548Z,18.50
2017-08-05T03:02:59.917Z,18.40
2017-08-05T03:05:28.202Z,18.40
2017-08-05T03:07:56.471Z,18.50
2017-08-05T03:10:24.753Z,18.50
2017-08-05T03:12:53.029Z,18.50
2017-08-05T03:15:21.410Z,18.50
2017-08-05T03:17:49.675Z,18.40
2017-08-05T03:20:18.049Z,18.30
2017-08-05T03:22:46.343Z,18.30
2017-08-05T03:25:14.645Z,18.30
2017-08-05T03:27:42.895Z,18.30
2017-08-05T03:30:11.161Z,18.30
2017-08-05T03:32:39.427Z,18.30
2017-08-05T03:35:07.703Z,18.40
2017-08-05T03:37:35.999Z,18.30
2017-08-05T03:40:04.257Z,18.30
2017-08-05T03:42:32.571Z,18.30
2017-08-05T03:45:00.938Z,18.30
2017-08-05T03:47:29.318Z,18.30
2017-08-05T03:49:57.697Z,18.30
2017-08-05T03:52:25.960Z,18.30
2017-08-05T03:54:54.368Z,18.20
2017-08-05T03:57:22.633Z,18.30
2017-08-05T03:59:50.909Z,18.30
2017-08-05T04:02:19.200Z,18.20
2017-08-05T04:04:47.573Z,18.20
2017-08-05T04:07:16.602Z,18.10
2017-08-05T04:09:44.954Z,18.10
2017-08-05T04:12:13.989Z,18.20
2017-08-05T04:14:42.389Z,18.20
2017-08-05T04:17:10.673Z,18.20
2017-08-05T04:19:38.954Z,18.20
2017-08-05T04:22:07.327Z,18.20
2017-08-05T04:24:35.603Z,18.20
2017-08-05T04:27:03.881Z,18.30
2017-08-05T04:29:32.192Z,18.30
2017-08-05T04:32:01.267Z,18.40
2017-08-05T04:34:29.624Z,18.30
2017-08-05T04:36:58.025Z,18.40
2017-08-05T04:39:26.276Z,18.50
2017-08-05T04:41:54.575Z,18.50
2017-08-05T04:44:22.962Z,18.60
2017-08-05T04:46:51.325Z,18.50
2017-08-05T04:49:19.696Z,18.60
2017-08-05T04:51:47.969Z,18.60
2017-08-05T04:54:16.242Z,18.60
2017-08-05T04:56:44.513Z,18.70
2017-08-05T04:59:13.601Z,18.70
2017-08-05T05:01:41.926Z,18.70
2017-08-05T05:04:10.191Z,18.70
2017-08-05T05:06:38.568Z,18.70
2017-08-05T05:09:06.892Z,18.80
2017-08-05T05:11:35.945Z,18.90
2017-08-05T05:14:04.222Z,18.80
2017-08-05T05:16:32.590Z,18.80
2017-08-05T05:19:00.873Z,18.80
2017-08-05T05:21:29.250Z,18.80
2017-08-05T05:23:57.518Z,18.90
2017-08-05T05:26:25.781Z,19.00
2017-08-05T05:28:54.088Z,19.10
2017-08-05T05:31:22.358Z,19.10
2017-08-05T05:33:50.742Z,19.20
2017-08-05T05:36:19.003Z,19.30
2017-08-05T05:38:47.292Z,19.20
2017-08-05T05:41:15.567Z,19.30
2017-08-05T05:43:43.967Z,19.30
2017-08-05T05:46:12.328Z,19.30
2017-08-05T05:48:40.573Z,19.30
2017-08-05T05:51:08.868Z,19.50
2017-08-05T05:53:37.133Z,19.50
2017-08-05T05:56:05.427Z,19.50
2017-08-05T05:58:33.734Z,19.50
2017-08-05T06:01:02.013Z,19.50
2017-08-05T06:03:30.277Z,19.60
2017-08-05T06:05:58.566Z,19.70
2017-08-05T06:08:26.826Z,19.70
2017-08-05T06:10:55.141Z,19.70
2017-08-05T06:13:23.474Z,19.80
2017-08-05T06:15:51.746Z,19.90
2017-08-05T06:18:20.038Z,20.00
2017-08-05T06:20:48.408Z,20.20
2017-08-05T06:23:16.800Z,20.30
2017-08-05T06:25:45.086Z,20.40
2017-08-05T06:28:13.360Z,20.40
2017-08-05T06:30:41.625Z,20.30
2017-08-05T06:33:09.946Z,20.40
2017-08-05T06:35:38.216Z,20.50
2017-08-05T06:38:07.589Z,20.60
2017-08-05T06:40:35.865Z,20.60
2017-08-05T06:43:04.162Z,20.60
2017-08-05T06:45:33.225Z,20.80
2017-08-05T06:48:01.508Z,20.80
2017-08-05T06:50:29.793Z,20.80
2017-08-05T06:52:58.161Z,20.90
2017-08-05T06:55:26.533Z,20.90
2017-08-05T06:57:54.810Z,20.90
2017-08-05T07:00:23.065Z,20.90
2017-08-05T07:02:51.364Z,21.00
2017-08-05T07:05:19.629Z,21.00
2017-08-05T07:07:47.920Z,21.10
2017-08-05T07:10:16.216Z,21.20
2017-08-05T07:12:44.564Z,21.40
2017-08-05T07:15:12.868Z,21.30
2017-08-05T07:17:41.206Z,21.40
2017-08-05T07:20:09.506Z,21.40
2017-08-05T07:22:37.829Z,21.50
2017-08-05T07:25:06.857Z,21.70
2017-08-05T07:27:35.126Z,21.70
2017-08-05T07:30:03.409Z,21.80
2017-08-05T07:32:31.664Z,21.80
2017-08-05T07:34:59.989Z,21.90
2017-08-05T07:37:28.266Z,21.90
2017-08-05T07:39:56.561Z,22.00
2017-08-05T07:42:24.922Z,22.20
2017-08-05T07:44:53.227Z,22.40
2017-08-05T07:47:22.260Z,22.50
2017-08-05T07:49:50.515Z,22.50
2017-08-05T07:52:18.846Z,22.50
2017-08-05T07:54:47.102Z,22.50
2017-08-05T07:57:15.406Z,22.50
2017-08-05T07:59:43.678Z,22.60
2017-08-05T08:02:11.974Z,22.50
2017-08-05T08:04:40.224Z,22.60
2017-08-05T08:07:08.550Z,22.50
2017-08-05T08:09:36.839Z,22.50
2017-08-05T08:12:05.115Z,22.50
2017-08-05T08:14:33.395Z,22.50
2017-08-05T08:17:01.748Z,22.60
2017-08-05T08:19:30.143Z,22.70
2017-08-05T08:21:58.523Z,22.80
2017-08-05T08:24:26.802Z,22.90
2017-08-05T08:26:55.084Z,23.00
2017-08-05T08:29:23.439Z,23.10
2017-08-05T08:31:56.738Z,23.10
2017-08-05T08:34:25.019Z,23.20
2017-08-05T08:36:53.297Z,23.00
2017-08-05T08:39:21.587Z,23.00
2017-08-05T08:41:49.874Z,22.90
2017-08-05T08:44:18.900Z,23.10
2017-08-05T08:46:47.941Z,23.10
2017-08-05T08:49:16.221Z,23.10
2017-08-05T08:51:44.603Z,23.10
2017-08-05T08:54:12.964Z,23.30
2017-08-05T08:56:41.367Z,23.40
2017-08-05T08:59:09.737Z,23.60
2017-08-05T09:01:38.051Z,23.80
2017-08-05T09:04:07.112Z,23.80
2017-08-05T09:06:35.371Z,23.80
2017-08-05T09:09:03.647Z,23.90
2017-08-05T09:11:31.940Z,24.00
2017-08-05T09:14:00.210Z,24.10
2017-08-05T09:16:28.478Z,24.40
2017-08-05T09:18:56.779Z,24.60
2017-08-05T09:21:25.140Z,24.60
2017-08-05T09:23:53.414Z,24.60
2017-08-05T09:26:21.702Z,24.60
2017-08-05T09:28:49.969Z,24.70
2017-08-05T09:31:18.248Z,24.80
2017-08-05T09:33:46.577Z,24.90
2017-08-05T09:36:14.950Z,24.90
2017-08-05T09:38:43.233Z,25.20
2017-08-05T09:41:11.522Z,25.20
2017-08-05T09:43:39.893Z,24.80
2017-08-05T09:46:08.162Z,24.90
2017-08-05T09:48:36.452Z,25.00
2017-08-05T09:51:04.727Z,24.90
2017-08-05T09:53:33.106Z,24.70
2017-08-05T09:56:01.376Z,24.50
2017-08-05T09:58:29.756Z,24.60
2017-08-05T10:00:58.135Z,24.80
2017-08-05T10:03:26.519Z,25.20
2017-08-05T10:05:54.780Z,25.20
2017-08-05T10:08:23.068Z,25.50
2017-08-05T10:10:51.442Z,25.40
2017-08-05T10:13:19.732Z,25.80
2017-08-05T10:15:48.020Z,26.00
2017-08-05T10:18:16.382Z,26.10
2017-08-05T10:20:44.652Z,25.60
2017-08-05T10:23:12.918Z,25.40
2017-08-05T10:25:42.245Z,25.20
2017-08-05T10:28:10.502Z,25.20
2017-08-05T10:30:38.794Z,25.20
2017-08-05T10:33:07.060Z,25.10
2017-08-05T10:35:35.338Z,25.10
2017-08-05T10:38:03.614Z,24.90
2017-08-05T10:40:31.904Z,24.70
2017-08-05T10:43:00.182Z,24.50
2017-08-05T10:45:28.429Z,24.40
2017-08-05T10:47:56.722Z,24.40
2017-08-05T10:50:24.994Z,24.40
2017-08-05T10:52:53.277Z,24.30
2017-08-05T10:55:21.674Z,24.10
2017-08-05T10:57:49.965Z,24.00
2017-08-05T11:00:19.014Z,24.10
2017-08-05T11:02:47.271Z,24.10
2017-08-05T11:05:15.563Z,24.20
2017-08-05T11:07:43.851Z,24.30
2017-08-05T11:10:12.253Z,24.20
2017-08-05T11:12:40.522Z,24.20
2017-08-05T11:15:08.845Z,24.30
2017-08-05T11:17:37.118Z,24.10
2017-08-05T11:20:05.389Z,23.70
2017-08-05T11:22:33.769Z,23.50
2017-08-05T11:25:02.065Z,23.40
2017-08-05T11:27:30.334Z,23.20
2017-08-05T11:29:58.697Z,22.70
2017-08-05T11:32:27.095Z,22.10
2017-08-05T11:34:55.351Z,21.70
2017-08-05T11:37:23.739Z,21.40
2017-08-05T11:39:51.988Z,20.90
2017-08-05T11:42:20.267Z,20.90
2017-08-05T11:44:48.569Z,20.90
2017-08-05T11:47:16.828Z,20.50
2017-08-05T11:49:45.124Z,20.30
2017-08-05T11:52:13.407Z,20.00
2017-08-05T11:54:41.791Z,19.90
2017-08-05T11:57:10.057Z,20.00
2017-08-05T11:59:38.331Z,20.00
2017-08-05T12:02:06.584Z,20.10
2017-08-05T12:04:34.890Z,20.20
2017-08-05T12:07:03.169Z,20.20
2017-08-05T12:09:31.428Z,20.10
2017-08-05T12:11:59.704Z,20.10
2017-08-05T12:14:27.972Z,20.20
2017-08-05T12:16:56.302Z,20.20
2017-08-05T12:19:24.601Z,20.20
2017-08-05T12:21:52.876Z,20.30
2017-08-05T12:24:21.128Z,20.40
2017-08-05T12:26:49.525Z,20.50
2017-08-05T12:29:17.806Z,20.30
2017-08-05T12:31:46.181Z,20.20
2017-08-05T12:34:14.528Z,20.00
2017-08-05T12:36:42.792Z,20.10
2017-08-05T12:39:11.119Z,20.20
2017-08-05T12:41:39.391Z,20.40
2017-08-05T12:44:07.681Z,20.60
2017-08-05T12:46:36.752Z,21.40
2017-08-05T12:49:05.133Z,21.40
2017-08-05T12:51:33.446Z,21.10
2017-08-05T12:54:02.632Z,21.00
2017-08-05T12:56:31.659Z,20.90
2017-08-05T12:59:00.001Z,20.90
2017-08-05T13:01:28.272Z,20.50
2017-08-05T13:03:56.541Z,20.30
2017-08-05T13:06:24.922Z,20.10
2017-08-05T13:08:53.297Z,19.90
2017-08-05T13:11:21.566Z,20.00
2017-08-05T13:13:49.950Z,20.30
2017-08-05T13:16:18.325Z,20.50
2017-08-05T13:18:46.706Z,20.90
2017-08-05T13:21:14.993Z,21.20
2017-08-05T13:23:43.369Z,21.30
2017-08-05T13:26:11.626Z,21.20
2017-08-05T13:28:40.019Z,21.20
2017-08-05T13:31:08.353Z,21.40
2017-08-05T13:33:36.680Z,21.30
2017-08-05T13:36:04.936Z,21.30
2017-08-05T13:38:33.321Z,20.90
2017-08-05T13:41:01.616Z,20.80
2017-08-05T13:43:29.982Z,20.90
2017-08-05T13:45:58.243Z,20.50
2017-08-05T13:48:26.506Z,20.50
2017-08-05T13:50:54.814Z,20.20
2017-08-05T13:53:23.086Z,20.00
2017-08-05T13:55:51.478Z,19.90
2017-08-05T13:58:19.749Z,19.60
2017-08-05T14:00:48.133Z,19.50
2017-08-05T14:03:17.175Z,19.10
2017-08-05T14:05:45.581Z,19.00
2017-08-05T14:08:13.837Z,19.20
2017-08-05T14:10:42.129Z,19.00
2017-08-05T14:13:10.509Z,19.00
2017-08-05T14:15:38.890Z,18.80
2017-08-05T14:18:07.180Z,18.80
2017-08-05T14:20:35.444Z,18.60
2017-08-05T14:23:03.735Z,18.60
2017-08-05T14:25:32.112Z,18.70
2017-08-05T14:28:01.292Z,18.60
2017-08-05T14:30:29.551Z,18.60
2017-08-05T14:32:57.804Z,18.70
2017-08-05T14:35:26.091Z,18.70
2017-08-05T14:37:54.401Z,18.70
2017-08-05T14:40:22.785Z,18.70
2017-08-05T14:42:51.042Z,18.70
2017-08-05T14:45:19.337Z,18.60
2017-08-05T14:47:47.635Z,18.60
2017-08-05T14:50:15.998Z,18.80
2017-08-05T14:52:44.244Z,18.70
2017-08-05T14:55:12.656Z,18.70
2017-08-05T14:57:40.913Z,18.90
2017-08-05T15:00:09.205Z,19.30
2017-08-05T15:02:37.499Z,19.60
2017-08-05T15:05:05.762Z,19.90
2017-08-05T15:07:34.130Z,20.20
2017-08-05T15:10:02.408Z,20.30
2017-08-05T15:12:30.688Z,20.30
2017-08-05T15:14:59.082Z,20.30
2017-08-05T15:17:27.462Z,20.20
2017-08-05T15:19:55.753Z,20.20
2017-08-05T15:22:24.819Z,20.20
2017-08-05T15:24:53.098Z,20.20
2017-08-05T15:27:21.683Z,20.20
2017-08-05T15:29:50.060Z,20.30
2017-08-05T15:32:18.322Z,20.40
2017-08-05T15:34:47.372Z,20.20
2017-08-05T15:37:15.628Z,20.20
2017-08-05T15:39:43.922Z,20.30
2017-08-05T15:42:13.014Z,20.20
2017-08-05T15:44:41.443Z,20.20
2017-08-05T15:47:09.758Z,20.10
2017-08-05T15:49:38.045Z,20.10
2017-08-05T15:52:06.315Z,20.00
2017-08-05T15:54:34.582Z,20.00
2017-08-05T15:57:02.877Z,20.00
2017-08-05T15:59:31.237Z,19.70
2017-08-05T16:01:59.614Z,19.60
2017-08-05T16:04:28.002Z,19.60
2017-08-05T16:06:56.275Z,19.80
2017-08-05T16:09:24.638Z,20.10
2017-08-05T16:11:52.935Z,20.00
2017-08-05T16:14:21.308Z,19.90
2017-08-05T16:16:49.566Z,20.10
2017-08-05T16:19:17.867Z,20.10
2017-08-05T16:21:46.147Z,20.10
2017-08-05T16:24:14.422Z,20.20
2017-08-05T16:26:42.766Z,20.20
2017-08-05T16:29:11.075Z,20.40
2017-08-05T16:31:40.097Z,20.30
2017-08-05T16:34:08.350Z,20.30
2017-08-05T16:36:36.669Z,20.40
2017-08-05T16:39:04.961Z,20.30
2017-08-05T16:41:33.339Z,20.50
2017-08-05T16:44:01.610Z,20.60
2017-08-05T16:46:29.995Z,20.60
2017-08-05T16:48:58.266Z,20.80
2017-08-05T16:51:26.552Z,21.10
2017-08-05T16:53:54.920Z,21.40
2017-08-05T16:56:23.196Z,21.50
2017-08-05T16:58:52.264Z,21.50
2017-08-05T17:01:20.526Z,21.50
2017-08-05T17:03:48.815Z,21.30
2017-08-05T17:06:17.077Z,21.70
2017-08-05T17:08:45.369Z,22.00
2017-08-05T17:11:13.646Z,22.80
2017-08-05T17:13:42.026Z,22.90
2017-08-05T17:16:10.297Z,22.50
2017-08-05T17:18:38.562Z,22.20
2017-08-05T17:21:06.934Z,22.30
2017-08-05T17:23:35.278Z,22.30
2017-08-05T17:26:03.652Z,22.10
2017-08-05T17:28:31.934Z,22.10
2017-08-05T17:31:00.284Z,21.90
2017-08-05T17:33:28.549Z,21.70
2017-08-05T17:35:56.954Z,21.70
2017-08-05T17:38:25.213Z,21.60
2017-08-05T17:40:53.596Z,21.70
2017-08-05T17:43:21.871Z,22.00
2017-08-05T17:45:50.153Z,21.90
2017-08-05T17:48:18.416Z,21.90
2017-08-05T17:50:46.690Z,22.00
2017-08-05T17:53:14.974Z,22.00
2017-08-05T17:55:43.242Z,21.40
2017-08-05T17:58:11.541Z,21.20
2017-08-05T18:00:39.815Z,20.80
2017-08-05T18:03:08.210Z,20.50
2017-08-05T18:05:36.465Z,20.30
2017-08-05T18:08:04.725Z,20.10
2017-08-05T18:10:33.018Z,19.90
2017-08-05T18:13:01.297Z,19.70
2017-08-05T18:15:29.587Z,19.50
2017-08-05T18:17:57.844Z,19.30
2017-08-05T18:20:26.157Z,19.30
2017-08-05T18:22:54.421Z,19.30
2017-08-05T18:25:22.795Z,19.30
2017-08-05T18:27:51.073Z,19.20
2017-08-05T18:30:19.342Z,19.20
2017-08-05T18:32:47.734Z,19.20
2017-08-05T18:35:16.003Z,19.20
2017-08-05T18:37:44.375Z,19.20
2017-08-05T18:40:12.785Z,19.10
2017-08-05T18:42:41.148Z,18.90
2017-08-05T18:45:09.431Z,18.90
2017-08-05T18:47:37.804Z,18.90
2017-08-05T18:50:06.061Z,18.80
2017-08-05T18:52:34.354Z,18.70
2017-08-05T18:55:02.672Z,18.60
2017-08-05T18:57:30.948Z,18.60
2017-08-05T18:59:59.328Z,18.60
2017-08-05T19:02:27.593Z,18.70
2017-08-05T19:04:56.139Z,18.80
2017-08-05T19:07:24.596Z,18.90
2017-08-05T19:09:52.865Z,18.90
2017-08-05T19:12:21.138Z,18.80
2017-08-05T19:14:49.388Z,18.80
2017-08-05T19:17:17.778Z,18.70
2017-08-05T19:19:46.166Z,18.60
2017-08-05T19:22:14.541Z,18.60
2017-08-05T19:24:42.830Z,18.50
2017-08-05T19:27:11.134Z,18.50
2017-08-05T19:29:40.161Z,18.50
2017-08-05T19:32:08.462Z,18.50
2017-08-05T19:34:36.836Z,18.50
2017-08-05T19:37:05.126Z,18.40
2017-08-05T19:39:33.417Z,18.40
2017-08-05T19:42:01.781Z,18.40
2017-08-05T19:44:30.170Z,18.40
2017-08-05T19:46:58.427Z,18.40
2017-08-05T19:49:26.730Z,18.50
2017-08-05T19:51:55.750Z,18.40
2017-08-05T19:54:24.071Z,18.40
2017-08-05T19:56:52.452Z,18.30
2017-08-05T19:59:20.724Z,18.30
2017-08-05T20:01:49.928Z,18.30
2017-08-05T20:04:18.205Z,18.30
2017-08-05T20:06:47.004Z,18.20
2017-08-05T20:09:15.272Z,18.10
2017-08-05T20:11:43.652Z,18.00
2017-08-05T20:14:12.028Z,17.90
2017-08-05T20:16:40.297Z,18.00
2017-08-05T20:19:08.579Z,17.90
2017-08-05T20:21:36.861Z,17.80
2017-08-05T20:24:05.127Z,17.70
2017-08-05T20:26:33.522Z,17.70
2017-08-05T20:29:01.796Z,17.70
2017-08-05T20:31:30.056Z,17.70
2017-08-05T20:33:58.350Z,17.70
2017-08-05T20:36:26.631Z,17.60
2017-08-05T20:38:54.966Z,17.60
2017-08-05T20:41:23.286Z,17.60
2017-08-05T20:43:51.555Z,17.60
2017-08-05T20:46:19.939Z,17.50
2017-08-05T20:48:48.193Z,17.50
2017-08-05T20:51:16.492Z,17.50
2017-08-05T20:53:44.745Z,17.50
2017-08-05T20:56:13.060Z,17.50
2017-08-05T20:58:41.434Z,17.50
2017-08-05T21:01:09.819Z,17.50
2017-08-05T21:03:38.134Z,17.50
2017-08-05T21:06:06.496Z,17.50
2017-08-05T21:08:34.878Z,17.50
2017-08-05T21:11:03.137Z,17.50
2017-08-05T21:13:31.443Z,17.40
2017-08-05T21:15:59.692Z,17.40
2017-08-05T21:18:27.968Z,17.40
2017-08-05T21:20:56.240Z,17.40
2017-08-05T21:23:25.398Z,17.30
2017-08-05T21:25:53.657Z,17.30
2017-08-05T21:28:22.057Z,17.30
2017-08-05T21:30:50.320Z,17.30
2017-08-05T21:33:19.569Z,17.30
2017-08-05T21:35:47.840Z,17.30
2017-08-05T21:38:16.889Z,17.30
2017-08-05T21:40:45.174Z,17.30
2017-08-05T21:43:13.453Z,17.30
2017-08-05T21:45:41.847Z,17.30
2017-08-05T21:48:10.206Z,17.40
2017-08-05T21:50:38.502Z,17.40
2017-08-05T21:53:06.868Z,17.40
2017-08-05T21:55:35.146Z,17.40
2017-08-05T21:58:03.523Z,17.40
2017-08-05T22:00:31.802Z,17.30
2017-08-05T22:03:00.185Z,17.30
2017-08-05T22:05:28.445Z,17.30
2017-08-05T22:07:56.732Z,17.30
2017-08-05T22:10:25.129Z,17.30
2017-08-05T22:12:53.507Z,17.40
2017-08-05T22:15:21.786Z,17.40
2017-08-05T22:17:50.153Z,17.40
2017-08-05T22:20:18.529Z,17.40
2017-08-05T22:22:46.826Z,17.50
2017-08-05T22:25:15.191Z,17.50
2017-08-05T22:27:43.480Z,17.50
2017-08-05T22:30:11.847Z,17.50
2017-08-05T22:32:40.115Z,17.50
2017-08-05T22:35:08.396Z,17.50
2017-08-05T22:37:36.643Z,17.50
2017-08-05T22:40:04.901Z,17.50
2017-08-05T22:42:33.235Z,17.50
2017-08-05T22:45:01.513Z,17.50
2017-08-05T22:47:29.779Z,17.50
2017-08-05T22:49:58.039Z,17.50
2017-08-05T22:52:26.345Z,17.50
2017-08-05T22:54:54.599Z,17.50
2017-08-05T22:57:22.898Z,17.40
2017-08-05T22:59:51.154Z,17.40
2017-08-05T23:02:19.518Z,17.40
2017-08-05T23:04:47.795Z,17.40
2017-08-05T23:07:16.061Z,17.30
2017-08-05T23:09:44.445Z,17.30
2017-08-05T23:12:12.717Z,17.30
2017-08-05T23:14:41.098Z,17.30
2017-08-05T23:17:09.382Z,17.20
2017-08-05T23:19:37.757Z,17.20
2017-08-05T23:22:06.034Z,17.20
2017-08-05T23:24:34.321Z,17.20
2017-08-05T23:27:02.571Z,17.10
2017-08-05T23:29:30.823Z,17.00
2017-08-05T23:31:59.151Z,17.00
2017-08-05T23:34:27.415Z,17.00
2017-08-05T23:36:55.697Z,17.00
2017-08-05T23:39:23.950Z,17.00
2017-08-05T23:41:52.236Z,17.00
2017-08-05T23:44:20.609Z,17.00
2017-08-05T23:46:49.005Z,17.00
2017-08-05T23:49:17.274Z,17.00
2017-08-05T23:51:45.532Z,16.90
2017-08-05T23:54:13.847Z,16.90
2017-08-05T23:56:42.117Z,16.90
2017-08-05T23:59:10.401Z,16.90
